Time;durP1;ratioP1;P1;durP2;ratioP2;P2;SDS_P1;SDS_P2;PMS_P1;PMS_P2;Temp;Humidity;BMP_temperature;BMP_pressure;BME280_temperature;BME280_humidity;BME280_pressure;Samples;Min_cycle;Max_cycle;Signal;HPM_P1;HPM_P2
2022/07/22 00:04:02;;;;;;;;;;;;;;;;;;10497155;28;19925;-66
2022/07/22 00:09:04;;;;;;;;;;;;;;;;;;10497135;28;19935;-66
2022/07/22 00:14:06;;;;;;;;;;;;;;;;;;10497498;28;19924;-66
2022/07/22 00:19:08;;;;;;;;;;;;;;;;;;10487572;28;19932;-66
2022/07/22 00:24:10;;;;;;;;;;;;;;;;;;10496402;28;20261;-66
2022/07/22 00:29:12;;;;;;;;;;;;;;;;;;10496595;28;20344;-66
2022/07/22 00:34:14;;;;;;;;;;;;;;;;;;10497313;28;19936;-66
2022/07/22 00:39:17;;;;;;;;;;;;;;;;;;10500243;28;20404;-66
2022/07/22 00:44:19;;;;;;;;;;;;;;;;;;10503817;28;20369;-66
2022/07/22 00:49:21;;;;;;;;;;;;;;;;;;10504236;28;19924;-66
2022/07/22 00:54:23;;;;;;;;;;;;;;;;;;10503367;28;20282;-66
2022/07/22 00:59:25;;;;;;;;;;;;;;;;;;10503614;28;19928;-66
2022/07/22 01:04:27;;;;;;;;;;;;;;;;;;10503479;28;19931;-66
2022/07/22 01:09:29;;;;;;;;;;;;;;;;;;10503532;28;19979;-66
2022/07/22 01:14:31;;;;;;;;;;;;;;;;;;10502748;28;19936;-66
2022/07/22 01:19:33;;;;;;;;;;;;;;;;;;10503002;28;19924;-66
2022/07/22 01:24:35;;;;;;;;;;;;;;;;;;10501701;28;20287;-66
2022/07/22 01:29:37;;;;;;;;;;;;;;;;;;10502189;28;19932;-66
2022/07/22 01:34:39;;;;;;;;;;;;;;;;;;10499476;28;19932;-66
2022/07/22 01:39:42;;;;;;;;;;;;;;;;;;10501816;28;19931;-66
2022/07/22 01:44:44;;;;;;;;;;;;;;;;;;10500733;28;19928;-66
2022/07/22 01:49:46;;;;;;;;;;;;;;;;;;10499367;28;19925;-66
2022/07/22 01:54:48;;;;;;;;;;;;;;;;;;10501150;28;19924;-66
2022/07/22 01:59:50;;;;;;;;;;;;;;;;;;10500667;28;19925;-66
2022/07/22 02:04:52;;;;;;;;;;;;;;;;;;10500749;28;20375;-66
2022/07/22 02:09:54;;;;;;;;;;;;;;;;;;10499636;28;20287;-66
2022/07/22 02:14:56;;;;;;;;;;;;;;;;;;10500696;28;19928;-66
2022/07/22 02:19:58;;;;;;;;;;;;;;;;;;10499816;28;19928;-66
2022/07/22 02:25:00;;;;;;;;;;;;;;;;;;10499895;28;20287;-66
2022/07/22 02:30:02;;;;;;;;;;;;;;;;;;10500235;28;19940;-66
2022/07/22 02:35:04;;;;;;;;;;;;;;;;;;10499337;28;19935;-66
2022/07/22 02:40:07;;;;;;;;;;;;;;;;;;10498861;28;19932;-67
2022/07/22 02:45:09;;;;;;;;;;;;;;;;;;10477479;28;20375;-66
2022/07/22 02:50:11;;;;;;;;;;;;;;;;;;10458026;28;19932;-66
2022/07/22 02:55:14;;;;;;;;;;;;;;;;;;10457786;28;19925;-66
2022/07/22 03:00:16;;;;;;;;;;;;;;;;;;10458043;28;19932;-66
2022/07/22 03:05:18;;;;;;;;;;;;;;;;;;10446477;28;19925;-66
2022/07/22 03:10:20;;;;;;;;;;;;;;;;;;10456547;28;20300;-66
2022/07/22 03:15:22;;;;;;;;;;;;;;;;;;10429709;28;19932;-66
2022/07/22 03:20:24;;;;;;;;;;;;;;;;;;10479689;28;19924;-66
2022/07/22 03:25:26;;;;;;;;;;;;;;;;;;10430838;28;19925;-66
2022/07/22 03:30:28;;;;;;;;;;;;;;;;;;10415361;28;19925;-66
2022/07/22 03:35:30;;;;;;;;;;;;;;;;;;10419247;28;19925;-66
2022/07/22 03:40:32;;;;;;;;;;;;;;;;;;10455899;28;19925;-66
2022/07/22 03:45:34;;;;;;;;;;;;;;;;;;10479693;28;20372;-66
2022/07/22 03:50:36;;;;;;;;;;;;;;;;;;10522488;28;19930;-66
2022/07/22 03:55:38;;;;;;;;;;;;;;;;;;10515223;28;20473;-66
2022/07/22 04:00:41;;;;;;;;;;;;;;;;;;10497392;28;19924;-66
2022/07/22 04:05:43;;;;;;;;;;;;;;;;;;10497611;28;19960;-66
2022/07/22 04:10:45;;;;;;;;;;;;;;;;;;10463615;28;19928;-66
2022/07/22 04:15:47;;;;;;;;;;;;;;;;;;10494893;28;19939;-66
2022/07/22 04:20:49;;;;;;;;;;;;;;;;;;10522372;28;19975;-66
2022/07/22 04:25:51;;;;;;;;;;;;;;;;;;10504999;28;19925;-66
2022/07/22 04:30:53;;;;;;;;;;;;;;;;;;10504119;28;19947;-66
2022/07/22 04:35:56;;;;;;;;;;;;;;;;;;10503057;28;20395;-66
2022/07/22 04:40:58;;;;;;;;;;;;;;;;;;10475750;28;19931;-66
2022/07/22 04:46:01;;;;;;;;;;;;;;;;;;10506116;28;20304;-66
2022/07/22 04:51:03;;;;;;;;;;;;;;;;;;10503433;28;19924;-66
2022/07/22 04:56:05;;;;;;;;;;;;;;;;;;10503164;28;19939;-66
2022/07/22 05:01:07;;;;;;;;;;;;;;;;;;10503824;28;19932;-66
2022/07/22 05:06:09;;;;;;;;;;;;;;;;;;10502999;28;20276;-66
2022/07/22 05:11:11;;;;;;;;;;;;;;;;;;10503469;28;19924;-66
2022/07/22 05:16:14;;;;;;;;;;;;;;;;;;10502679;28;20391;-66
2022/07/22 05:21:16;;;;;;;;;;;;;;;;;;10501772;28;19943;-66
2022/07/22 05:26:18;;;;;;;;;;;;;;;;;;10502399;28;19924;-66
2022/07/22 05:31:20;;;;;;;;;;;;;;;;;;10502907;28;19924;-66
2022/07/22 05:36:22;;;;;;;;;;;;;;;;;;10502595;28;19932;-66
2022/07/22 05:41:24;;;;;;;;;;;;;;;;;;10502297;28;19925;-66
2022/07/22 05:46:26;;;;;;;;;;;;;;;;;;10501453;28;19929;-66
2022/07/22 05:51:28;;;;;;;;;;;;;;;;;;10502027;28;19924;-66
2022/07/22 05:56:30;;;;;;;;;;;;;;;;;;10501651;28;19932;-66
2022/07/22 06:01:32;;;;;;;;;;;;;;;;;;10501386;28;19924;-66
2022/07/22 06:06:34;;;;;;;;;;;;;;;;;;10500751;28;20406;-66
2022/07/22 06:11:36;;;;;;;;;;;;;;;;;;10501117;28;19928;-66
2022/07/22 06:16:39;;;;;;;;;;;;;;;;;;10500827;28;19924;-66
2022/07/22 06:21:41;;;;;;;;;;;;;;;;;;10482328;28;19924;-66
2022/07/22 06:26:46;;;;;;;;;;;;;;;;;;10499994;28;19960;-66
2022/07/22 06:31:48;;;;;;;;;;;;;;;;;;10499846;28;19924;-66
2022/07/22 06:36:50;;;;;;;;;;;;;;;;;;10499744;28;19971;-66
2022/07/22 06:41:52;;;;;;;;;;;;;;;;;;10499409;28;20287;-66
2022/07/22 06:46:54;;;;;;;;;;;;;;;;;;10499043;28;19924;-66
2022/07/22 06:51:57;;;;;;;;;;;;;;;;;;10499683;28;19928;-66
2022/07/22 06:56:59;;;;;;;;;;;;;;;;;;10498818;28;19931;-66
2022/07/22 07:02:01;;;;;;;;;;;;;;;;;;10499396;28;19934;-66
2022/07/22 07:07:07;;;;;;;;;;;;;;;;;;10499350;28;19939;-66
2022/07/22 07:12:10;;;;;;;;;;;;;;;;;;10498502;28;19924;-66
2022/07/22 07:17:12;;;;;;;;;;;;;;;;;;10498936;28;19928;-66
2022/07/22 07:22:14;;;;;;;;;;;;;;;;;;10498880;28;19925;-66
2022/07/22 07:27:16;;;;;;;;;;;;;;;;;;10498224;28;19935;-66
2022/07/22 07:32:18;;;;;;;;;;;;;;;;;;10498030;28;19939;-66
2022/07/22 07:37:20;;;;;;;;;;;;;;;;;;10497952;28;19947;-66
2022/07/22 07:42:23;;;;;;;;;;;;;;;;;;10497986;28;20009;-66
2022/07/22 07:47:25;;;;;;;;;;;;;;;;;;10499014;28;19925;-66
2022/07/22 07:52:27;;;;;;;;;;;;;;;;;;10506120;28;19925;-66
2022/07/22 07:57:29;;;;;;;;;;;;;;;;;;10506559;28;19924;-66
2022/07/22 08:02:32;;;;;;;;;;;;;;;;;;10505781;28;19928;-66
2022/07/22 08:07:34;;;;;;;;;;;;;;;;;;10505607;28;20267;-66
2022/07/22 08:12:36;;;;;;;;;;;;;;;;;;10505384;28;19951;-66
2022/07/22 08:17:38;;;;;;;;;;;;;;;;;;10505747;28;19939;-66
2022/07/22 08:22:40;;;;;;;;;;;;;;;;;;10505580;28;19932;-66
2022/07/22 08:27:42;;;;;;;;;;;;;;;;;;10504792;28;19947;-66
2022/07/22 08:32:44;;;;;;;;;;;;;;;;;;10504606;28;20367;-66
2022/07/22 08:37:47;;;;;;;;;;;;;;;;;;10504376;28;20375;-66
2022/07/22 08:42:49;;;;;;;;;;;;;;;;;;10504626;28;19931;-66
2022/07/22 08:47:51;;;;;;;;;;;;;;;;;;10504756;28;19932;-66
2022/07/22 08:52:53;;;;;;;;;;;;;;;;;;10504574;28;19925;-66
2022/07/22 08:57:55;;;;;;;;;;;;;;;;;;10503891;28;19925;-66
2022/07/22 09:02:57;;;;;;;;;;;;;;;;;;10503482;28;19924;-66
2022/07/22 09:08:00;;;;;;;;;;;;;;;;;;10503343;28;20406;-66
2022/07/22 09:13:02;;;;;;;;;;;;;;;;;;10503108;28;19930;-66
2022/07/22 09:18:05;;;;;;;;;;;;;;;;;;10503553;28;19930;-66
2022/07/22 09:23:07;;;;;;;;;;;;;;;;;;10503350;28;20012;-66
2022/07/22 09:28:10;;;;;;;;;;;;;;;;;;10502551;28;20399;-66
2022/07/22 09:33:13;;;;;;;;;;;;;;;;;;10503024;28;20007;-66
2022/07/22 09:38:15;;;;;;;;;;;;;;;;;;10502716;28;19924;-66
2022/07/22 09:43:17;;;;;;;;;;;;;;;;;;10501782;28;19928;-66
2022/07/22 09:48:20;;;;;;;;;;;;;;;;;;10501780;28;20295;-66
2022/07/22 09:53:22;;;;;;;;;;;;;;;;;;10501451;28;19940;-66
2022/07/22 09:58:25;;;;;;;;;;;;;;;;;;10501348;28;20279;-67
2022/07/22 10:03:27;;;;;;;;;;;;;;;;;;10501816;28;19936;-67
2022/07/22 10:08:29;;;;;;;;;;;;;;;;;;10501575;28;19924;-66
2022/07/22 10:13:31;;;;;;;;;;;;;;;;;;10500485;28;19939;-66
2022/07/22 10:18:34;;;;;;;;;;;;;;;;;;10500377;28;20446;-66
2022/07/22 10:23:36;;;;;;;;;;;;;;;;;;10500308;28;20368;-66
2022/07/22 10:28:38;;;;;;;;;;;;;;;;;;10482389;28;20393;-66
2022/07/22 10:33:40;;;;;;;;;;;;;;;;;;10499996;28;19924;-66
2022/07/22 10:38:42;;;;;;;;;;;;;;;;;;10500268;28;19924;-66
2022/07/22 10:43:44;;;;;;;;;;;;;;;;;;10499903;28;19932;-66
2022/07/22 10:48:47;;;;;;;;;;;;;;;;;;10499379;28;20279;-66
2022/07/22 10:53:49;;;;;;;;;;;;;;;;;;10499791;28;19925;-66
2022/07/22 10:58:51;;;;;;;;;;;;;;;;;;10523099;22;20386;-61
2022/07/22 11:03:54;;;;;;;;;;;;;;;;;;10541340;28;19924;-61
2022/07/22 11:08:56;;;;;;;;;;;;;;;;;;10541178;28;19957;-61
2022/07/22 11:13:58;;;;;;;;;;;;;;;;;;10540498;28;20390;-61
2022/07/22 11:19:02;;;;;;;;;;;;;;;;;;10540352;28;19928;-61
2022/07/22 11:24:04;;;;;;;;;;;;;;;;;;10540699;28;19978;-61
2022/07/22 11:29:06;;;;;;;;;;;;;;;;;;10540050;28;20279;-61
2022/07/22 11:34:08;;;;;;;;;;;;;;;;;;10540108;28;19931;-61
2022/07/22 11:39:10;;;;;;;;;;;;;;;;;;10540387;28;19928;-61
2022/07/22 11:44:12;;;;;;;;;;;;;;;;;;10540315;28;19928;-61
2022/07/22 11:49:14;;;;;;;;;;;;;;;;;;10540300;28;19936;-61
2022/07/22 11:54:16;;;;;;;;;;;;;;;;;;10540079;28;19924;-61
2022/07/22 11:59:19;;;;;;;;;;;;;;;;;;10539598;28;19939;-61
2022/07/22 12:04:21;;;;;;;;;;;;;;;;;;10539829;28;19931;-62
2022/07/22 12:09:23;;;;;;;;;;;;;;;;;;10539526;28;19924;-61
2022/07/22 12:14:25;;;;;;;;;;;;;;;;;;10539615;28;19924;-61
2022/07/22 12:19:30;;;;;;;;;;;;;;;;;;10538837;28;20259;-61
2022/07/22 12:24:32;;;;;;;;;;;;;;;;;;10538676;28;20228;-61
2022/07/22 12:29:35;;;;;;;;;;;;;;;;;;10539298;28;19932;-62
2022/07/22 12:34:37;;;;;;;;;;;;;;;;;;10542242;28;19924;-61
2022/07/22 12:39:39;;;;;;;;;;;;;;;;;;10546783;28;19924;-61
2022/07/22 12:44:41;;;;;;;;;;;;;;;;;;10546700;28;19930;-61
2022/07/22 12:49:43;;;;;;;;;;;;;;;;;;10545574;28;19924;-61
2022/07/22 12:54:45;;;;;;;;;;;;;;;;;;10546046;28;19924;-61
2022/07/22 12:59:47;;;;;;;;;;;;;;;;;;10545375;28;19924;-61
2022/07/22 13:04:49;;;;;;;;;;;;;;;;;;10544972;28;20334;-61
2022/07/22 13:09:51;;;;;;;;;;;;;;;;;;10544899;28;20286;-61
2022/07/22 13:14:53;;;;;;;;;;;;;;;;;;10544324;28;20393;-61
2022/07/22 13:19:55;;;;;;;;;;;;;;;;;;10544996;28;19931;-62
2022/07/22 13:24:57;;;;;;;;;;;;;;;;;;10544883;28;19931;-61
2022/07/22 13:30:00;;;;;;;;;;;;;;;;;;10544751;28;19928;-61
2022/07/22 13:35:02;;;;;;;;;;;;;;;;;;10544452;28;19924;-61
2022/07/22 13:40:04;;;;;;;;;;;;;;;;;;10543519;28;20359;-61
2022/07/22 13:45:06;;;;;;;;;;;;;;;;;;10543134;28;19924;-61
2022/07/22 13:50:10;;;;;;;;;;;;;;;;;;10544217;28;19928;-61
2022/07/22 13:55:13;;;;;;;;;;;;;;;;;;10543087;28;20397;-61
2022/07/22 14:00:15;;;;;;;;;;;;;;;;;;10542741;28;19935;-61
2022/07/22 14:05:17;;;;;;;;;;;;;;;;;;10543487;28;19971;-61
2022/07/22 14:10:19;;;;;;;;;;;;;;;;;;10543546;28;19939;-61
2022/07/22 14:15:21;;;;;;;;;;;;;;;;;;10542458;28;20283;-61
2022/07/22 14:20:23;;;;;;;;;;;;;;;;;;10542211;28;20398;-62
2022/07/22 14:25:25;;;;;;;;;;;;;;;;;;10542632;28;19970;-61
2022/07/22 14:30:29;;;;;;;;;;;;;;;;;;10541897;28;20283;-61
2022/07/22 14:35:34;;;;;;;;;;;;;;;;;;10542521;28;20011;-61
2022/07/22 14:40:36;;;;;;;;;;;;;;;;;;10541501;28;20283;-61
2022/07/22 14:45:38;;;;;;;;;;;;;;;;;;10542059;28;19931;-61
2022/07/22 14:50:40;;;;;;;;;;;;;;;;;;10541255;28;19928;-61
2022/07/22 14:55:42;;;;;;;;;;;;;;;;;;10540714;28;20397;-62
2022/07/22 15:00:44;;;;;;;;;;;;;;;;;;10540572;28;20252;-61
2022/07/22 15:05:47;;;;;;;;;;;;;;;;;;10541338;28;19924;-61
2022/07/22 15:10:49;;;;;;;;;;;;;;;;;;10540347;28;19924;-61
2022/07/22 15:15:51;;;;;;;;;;;;;;;;;;10540960;28;19924;-61
2022/07/22 15:20:56;;;;;;;;;;;;;;;;;;10540101;28;20378;-61
2022/07/22 15:25:58;;;;;;;;;;;;;;;;;;10540619;28;19924;-61
2022/07/22 15:31:00;;;;;;;;;;;;;;;;;;10539879;28;19951;-61
2022/07/22 15:36:03;;;;;;;;;;;;;;;;;;10539800;28;20359;-61
2022/07/22 15:41:05;;;;;;;;;;;;;;;;;;10540237;28;19924;-61
2022/07/22 15:46:07;;;;;;;;;;;;;;;;;;10539520;28;20381;-61
2022/07/22 15:51:10;;;;;;;;;;;;;;;;;;10540166;28;19924;-61
2022/07/22 15:56:12;;;;;;;;;;;;;;;;;;10539955;28;19924;-62
2022/07/22 16:01:14;;;;;;;;;;;;;;;;;;10539396;28;19924;-64
2022/07/22 16:06:16;;;;;;;;;;;;;;;;;;10539117;28;19963;-61
2022/07/22 16:11:18;;;;;;;;;;;;;;;;;;10545721;28;19931;-61
2022/07/22 16:16:20;;;;;;;;;;;;;;;;;;10547839;28;19935;-61
2022/07/22 16:21:22;;;;;;;;;;;;;;;;;;10547562;28;19973;-61
2022/07/22 16:26:28;;;;;;;;;;;;;;;;;;10547422;28;19924;-61
2022/07/22 16:31:30;;;;;;;;;;;;;;;;;;10547358;28;20086;-61
2022/07/22 16:36:32;;;;;;;;;;;;;;;;;;10545310;28;20259;-61
2022/07/22 16:41:34;;;;;;;;;;;;;;;;;;10545971;28;19924;-61
2022/07/22 16:46:36;;;;;;;;;;;;;;;;;;10556294;28;20371;-62
2022/07/22 16:51:38;;;;;;;;;;;;;;;;;;10545563;28;19955;-61
2022/07/22 16:56:40;;;;;;;;;;;;;;;;;;10545830;28;19928;-61
2022/07/22 17:01:42;;;;;;;;;;;;;;;;;;10541179;28;19924;-61
2022/07/22 17:06:44;;;;;;;;;;;;;;;;;;10545132;28;19967;-61
2022/07/22 17:11:46;;;;;;;;;;;;;;;;;;10544613;28;19931;-61
2022/07/22 17:16:49;;;;;;;;;;;;;;;;;;10508372;28;19931;-61
2022/07/22 17:21:51;;;;;;;;;;;;;;;;;;10541424;28;19989;-61
2022/07/22 17:26:53;;;;;;;;;;;;;;;;;;10544456;28;19936;-61
2022/07/22 17:31:55;;;;;;;;;;;;;;;;;;10544402;28;19931;-61
2022/07/22 17:36:57;;;;;;;;;;;;;;;;;;10544442;28;19924;-61
2022/07/22 17:41:59;;;;;;;;;;;;;;;;;;10544502;28;19924;-61
2022/07/22 17:47:02;;;;;;;;;;;;;;;;;;10544166;28;19924;-61
2022/07/22 17:52:05;;;;;;;;;;;;;;;;;;10543396;28;19924;-62
2022/07/22 17:57:07;;;;;;;;;;;;;;;;;;10543463;28;19924;-61
2022/07/22 18:02:10;;;;;;;;;;;;;;;;;;10541769;28;19924;-61
2022/07/22 18:07:12;;;;;;;;;;;;;;;;;;10508683;28;20438;-61
2022/07/22 18:12:14;;;;;;;;;;;;;;;;;;10542689;28;19924;-61
2022/07/22 18:17:16;;;;;;;;;;;;;;;;;;10523659;28;20023;-61
2022/07/22 18:22:18;;;;;;;;;;;;;;;;;;10541800;28;20306;-60
2022/07/22 18:27:20;;;;;;;;;;;;;;;;;;10552632;28;19927;-60
2022/07/22 18:32:27;;;;;;;;;;;;;;;;;;10550468;28;20002;-60
2022/07/22 18:37:31;;;;;;;;;;;;;;;;;;10540098;28;20232;-60
2022/07/22 18:42:33;;;;;;;;;;;;;;;;;;10540284;28;19925;-60
2022/07/22 18:47:35;;;;;;;;;;;;;;;;;;10540449;28;19931;-60
2022/07/22 18:52:37;;;;;;;;;;;;;;;;;;10541472;28;19924;-60
2022/07/22 18:57:40;;;;;;;;;;;;;;;;;;10538172;28;19924;-61
2022/07/22 19:02:42;;;;;;;;;;;;;;;;;;10539361;28;19924;-60
2022/07/22 19:07:44;;;;;;;;;;;;;;;;;;10538455;28;19990;-60
2022/07/22 19:12:46;;;;;;;;;;;;;;;;;;10540655;28;20015;-60
2022/07/22 19:17:48;;;;;;;;;;;;;;;;;;10540543;28;19931;-61
2022/07/22 19:22:50;;;;;;;;;;;;;;;;;;10540088;28;19928;-61
2022/07/22 19:27:52;;;;;;;;;;;;;;;;;;10539066;28;19930;-61
2022/07/22 19:32:54;;;;;;;;;;;;;;;;;;10540001;28;19924;-61
2022/07/22 19:37:56;;;;;;;;;;;;;;;;;;10539194;28;19924;-61
2022/07/22 19:42:59;;;;;;;;;;;;;;;;;;10541980;28;19931;-61
2022/07/22 19:48:01;;;;;;;;;;;;;;;;;;10548283;28;19935;-61
2022/07/22 19:53:03;;;;;;;;;;;;;;;;;;10548365;28;19924;-61
2022/07/22 19:58:05;;;;;;;;;;;;;;;;;;10547482;28;19932;-61
2022/07/22 20:03:07;;;;;;;;;;;;;;;;;;10540781;28;19924;-61
2022/07/22 20:08:09;;;;;;;;;;;;;;;;;;10547280;28;19924;-61
2022/07/22 20:13:11;;;;;;;;;;;;;;;;;;10546842;28;20290;-61
2022/07/22 20:18:13;;;;;;;;;;;;;;;;;;10547346;28;19932;-61
2022/07/22 20:23:15;;;;;;;;;;;;;;;;;;10547173;28;19924;-61
2022/07/22 20:28:17;;;;;;;;;;;;;;;;;;10546567;28;19930;-61
2022/07/22 20:33:19;;;;;;;;;;;;;;;;;;10573749;28;20259;-61
2022/07/22 20:38:21;;;;;;;;;;;;;;;;;;10579519;28;19928;-61
2022/07/22 20:43:23;;;;;;;;;;;;;;;;;;10546591;28;19924;-61
2022/07/22 20:48:26;;;;;;;;;;;;;;;;;;10546065;28;19931;-61
2022/07/22 20:53:28;;;;;;;;;;;;;;;;;;10545797;28;19923;-61
2022/07/22 20:58:31;;;;;;;;;;;;;;;;;;10545247;28;20003;-60
2022/07/22 21:03:33;;;;;;;;;;;;;;;;;;10545285;28;19930;-60
2022/07/22 21:08:36;;;;;;;;;;;;;;;;;;10545362;28;19987;-60
2022/07/22 21:13:38;;;;;;;;;;;;;;;;;;10544648;28;20294;-61
2022/07/22 21:18:41;;;;;;;;;;;;;;;;;;10534993;28;19924;-61
2022/07/22 21:23:43;;;;;;;;;;;;;;;;;;10544888;28;19924;-60
2022/07/22 21:28:45;;;;;;;;;;;;;;;;;;10544069;28;20386;-60
2022/07/22 21:33:47;;;;;;;;;;;;;;;;;;10544105;28;20394;-60
2022/07/22 21:38:49;;;;;;;;;;;;;;;;;;10544551;28;19924;-60
2022/07/22 21:43:51;;;;;;;;;;;;;;;;;;10544190;28;19935;-60
2022/07/22 21:48:53;;;;;;;;;;;;;;;;;;10543654;28;19938;-60
2022/07/22 21:53:57;;;;;;;;;;;;;;;;;;10544171;28;19924;-60
2022/07/22 21:58:59;;;;;;;;;;;;;;;;;;10543062;28;19924;-60
2022/07/22 22:04:01;;;;;;;;;;;;;;;;;;10543351;28;19958;-62
2022/07/22 22:09:03;;;;;;;;;;;;;;;;;;10541804;28;19947;-61
2022/07/22 22:14:06;;;;;;;;;;;;;;;;;;10543024;28;19924;-60
2022/07/22 22:19:08;;;;;;;;;;;;;;;;;;10543222;28;19938;-60
2022/07/22 22:24:10;;;;;;;;;;;;;;;;;;10541293;28;20287;-59
2022/07/22 22:29:12;;;;;;;;;;;;;;;;;;10541848;28;20306;-60
2022/07/22 22:34:14;;;;;;;;;;;;;;;;;;10541881;28;20397;-60
2022/07/22 22:39:16;;;;;;;;;;;;;;;;;;10542065;28;19924;-59
2022/07/22 22:44:18;;;;;;;;;;;;;;;;;;10541782;28;19932;-59
2022/07/22 22:49:20;;;;;;;;;;;;;;;;;;10541722;28;19924;-59
2022/07/22 22:54:22;;;;;;;;;;;;;;;;;;10541665;28;19962;-60
2022/07/22 22:59:24;;;;;;;;;;;;;;;;;;10540642;28;20271;-60
2022/07/22 23:04:26;;;;;;;;;;;;;;;;;;10541223;28;19927;-59
2022/07/22 23:09:29;;;;;;;;;;;;;;;;;;10541275;28;19924;-59
2022/07/22 23:14:31;;;;;;;;;;;;;;;;;;10533082;22;19924;-66
2022/07/22 23:19:33;;;;;;;;;;;;;;;;;;10498872;28;19928;-65
2022/07/22 23:24:35;;;;;;;;;;;;;;;;;;10499087;28;19924;-65
2022/07/22 23:29:37;;;;;;;;;;;;;;;;;;10498820;28;19925;-65
2022/07/22 23:34:39;;;;;;;;;;;;;;;;;;10498870;28;19931;-65
2022/07/22 23:39:41;;;;;;;;;;;;;;;;;;10498664;28;19939;-65
2022/07/22 23:44:43;;;;;;;;;;;;;;;;;;10497492;28;19932;-65
2022/07/22 23:49:45;;;;;;;;;;;;;;;;;;10497915;28;19950;-65
2022/07/22 23:54:47;;;;;;;;;;;;;;;;;;10497770;28;20375;-65
2022/07/22 23:59:50;;;;;;;;;;;;;;;;;;10497503;28;19932;-65
